sensor_id;sensor_type;location;lat;lon;timestamp;P1;durP1;ratioP1;P2;durP2;ratioP2
57327;SDS011;43162;51.040;18.244;2023-08-12T00:02:12;6.70;;;4.90;;
57327;SDS011;43162;51.040;18.244;2023-08-12T00:04:37;9.80;;;4.70;;
57327;SDS011;43162;51.040;18.244;2023-08-12T00:07:03;7.70;;;4.70;;
57327;SDS011;43162;51.040;18.244;2023-08-12T00:09:29;9.10;;;4.60;;
57327;SDS011;43162;51.040;18.244;2023-08-12T00:11:54;10.20;;;4.70;;
57327;SDS011;43162;51.040;18.244;2023-08-12T00:14:20;7.90;;;4.70;;
57327;SDS011;43162;51.040;18.244;2023-08-12T00:16:45;10.40;;;4.70;;
57327;SDS011;43162;51.040;18.244;2023-08-12T00:19:11;8.90;;;4.30;;
57327;SDS011;43162;51.040;18.244;2023-08-12T00:21:36;9.60;;;4.80;;
57327;SDS011;43162;51.040;18.244;2023-08-12T00:24:02;7.80;;;4.40;;
57327;SDS011;43162;51.040;18.244;2023-08-12T00:26:27;7.00;;;4.70;;
57327;SDS011;43162;51.040;18.244;2023-08-12T00:28:53;8.60;;;4.90;;
57327;SDS011;43162;51.040;18.244;2023-08-12T00:31:18;6.50;;;5.20;;
57327;SDS011;43162;51.040;18.244;2023-08-12T00:33:44;10.50;;;4.50;;
57327;SDS011;43162;51.040;18.244;2023-08-12T00:36:09;7.00;;;5.00;;
57327;SDS011;43162;51.040;18.244;2023-08-12T00:38:35;7.90;;;5.20;;
57327;SDS011;43162;51.040;18.244;2023-08-12T00:41:00;9.60;;;5.10;;
57327;SDS011;43162;51.040;18.244;2023-08-12T00:43:26;11.20;;;5.50;;
57327;SDS011;43162;51.040;18.244;2023-08-12T00:45:51;6.80;;;4.80;;
57327;SDS011;43162;51.040;18.244;2023-08-12T00:48:17;6.80;;;4.50;;
57327;SDS011;43162;51.040;18.244;2023-08-12T00:50:43;13.20;;;5.00;;
57327;SDS011;43162;51.040;18.244;2023-08-12T00:53:10;10.70;;;5.30;;
57327;SDS011;43162;51.040;18.244;2023-08-12T00:55:36;7.90;;;4.80;;
57327;SDS011;43162;51.040;18.244;2023-08-12T00:58:02;5.70;;;4.90;;
57327;SDS011;43162;51.040;18.244;2023-08-12T01:00:28;8.30;;;5.20;;
57327;SDS011;43162;51.040;18.244;2023-08-12T01:02:54;7.50;;;5.30;;
57327;SDS011;43162;51.040;18.244;2023-08-12T01:05:21;7.70;;;5.40;;
57327;SDS011;43162;51.040;18.244;2023-08-12T01:07:47;8.70;;;5.40;;
57327;SDS011;43162;51.040;18.244;2023-08-12T01:10:13;6.70;;;5.10;;
57327;SDS011;43162;51.040;18.244;2023-08-12T01:15:16;7.60;;;5.80;;
57327;SDS011;43162;51.040;18.244;2023-08-12T01:17:43;8.10;;;5.40;;
57327;SDS011;43162;51.040;18.244;2023-08-12T01:20:09;9.50;;;5.00;;
57327;SDS011;43162;51.040;18.244;2023-08-12T01:22:40;9.40;;;5.50;;
57327;SDS011;43162;51.040;18.244;2023-08-12T01:25:06;10.00;;;6.00;;
57327;SDS011;43162;51.040;18.244;2023-08-12T01:27:34;8.70;;;5.30;;
57327;SDS011;43162;51.040;18.244;2023-08-12T01:30:00;9.00;;;4.90;;
57327;SDS011;43162;51.040;18.244;2023-08-12T01:32:28;11.40;;;5.90;;
57327;SDS011;43162;51.040;18.244;2023-08-12T01:37:31;15.50;;;5.40;;
57327;SDS011;43162;51.040;18.244;2023-08-12T01:39:58;7.30;;;5.10;;
57327;SDS011;43162;51.040;18.244;2023-08-12T01:42:24;9.90;;;5.10;;
57327;SDS011;43162;51.040;18.244;2023-08-12T01:44:50;13.00;;;5.10;;
57327;SDS011;43162;51.040;18.244;2023-08-12T01:47:16;11.80;;;5.90;;
57327;SDS011;43162;51.040;18.244;2023-08-12T01:49:41;7.30;;;5.00;;
57327;SDS011;43162;51.040;18.244;2023-08-12T01:52:07;8.70;;;5.50;;
57327;SDS011;43162;51.040;18.244;2023-08-12T01:54:33;7.50;;;5.60;;
57327;SDS011;43162;51.040;18.244;2023-08-12T01:57:01;8.50;;;5.90;;
57327;SDS011;43162;51.040;18.244;2023-08-12T01:59:27;7.80;;;6.10;;
57327;SDS011;43162;51.040;18.244;2023-08-12T02:01:52;7.90;;;6.40;;
57327;SDS011;43162;51.040;18.244;2023-08-12T02:04:18;12.60;;;6.10;;
57327;SDS011;43162;51.040;18.244;2023-08-12T02:06:44;7.40;;;5.20;;
57327;SDS011;43162;51.040;18.244;2023-08-12T02:09:09;11.90;;;5.50;;
57327;SDS011;43162;51.040;18.244;2023-08-12T02:11:35;6.70;;;5.30;;
57327;SDS011;43162;51.040;18.244;2023-08-12T02:14:00;5.00;;;4.30;;
57327;SDS011;43162;51.040;18.244;2023-08-12T02:16:26;6.10;;;4.30;;
57327;SDS011;43162;51.040;18.244;2023-08-12T02:18:51;11.80;;;4.80;;
57327;SDS011;43162;51.040;18.244;2023-08-12T02:21:17;7.80;;;4.60;;
57327;SDS011;43162;51.040;18.244;2023-08-12T02:23:42;6.60;;;4.40;;
57327;SDS011;43162;51.040;18.244;2023-08-12T02:26:09;14.60;;;4.90;;
57327;SDS011;43162;51.040;18.244;2023-08-12T02:28:35;9.10;;;4.60;;
57327;SDS011;43162;51.040;18.244;2023-08-12T02:31:01;6.10;;;3.90;;
57327;SDS011;43162;51.040;18.244;2023-08-12T02:33:27;7.70;;;4.50;;
57327;SDS011;43162;51.040;18.244;2023-08-12T02:35:53;7.60;;;5.20;;
57327;SDS011;43162;51.040;18.244;2023-08-12T02:38:20;6.60;;;4.50;;
57327;SDS011;43162;51.040;18.244;2023-08-12T02:40:49;6.10;;;4.90;;
57327;SDS011;43162;51.040;18.244;2023-08-12T02:43:15;5.80;;;4.80;;
57327;SDS011;43162;51.040;18.244;2023-08-12T02:45:40;6.40;;;4.90;;
57327;SDS011;43162;51.040;18.244;2023-08-12T02:48:06;10.90;;;5.70;;
57327;SDS011;43162;51.040;18.244;2023-08-12T02:50:31;11.00;;;6.20;;
57327;SDS011;43162;51.040;18.244;2023-08-12T02:52:57;9.20;;;5.70;;
57327;SDS011;43162;51.040;18.244;2023-08-12T02:55:23;8.40;;;5.50;;
57327;SDS011;43162;51.040;18.244;2023-08-12T02:57:48;5.90;;;5.30;;
57327;SDS011;43162;51.040;18.244;2023-08-12T03:00:14;10.40;;;6.20;;
57327;SDS011;43162;51.040;18.244;2023-08-12T03:02:43;8.80;;;5.90;;
57327;SDS011;43162;51.040;18.244;2023-08-12T03:05:08;8.10;;;6.20;;
57327;SDS011;43162;51.040;18.244;2023-08-12T03:07:34;9.80;;;6.00;;
57327;SDS011;43162;51.040;18.244;2023-08-12T03:10:00;13.70;;;6.10;;
57327;SDS011;43162;51.040;18.244;2023-08-12T03:12:25;6.40;;;5.50;;
57327;SDS011;43162;51.040;18.244;2023-08-12T03:14:51;10.20;;;6.80;;
57327;SDS011;43162;51.040;18.244;2023-08-12T03:17:16;8.70;;;6.40;;
57327;SDS011;43162;51.040;18.244;2023-08-12T03:19:42;8.70;;;6.70;;
57327;SDS011;43162;51.040;18.244;2023-08-12T03:22:07;8.30;;;6.80;;
57327;SDS011;43162;51.040;18.244;2023-08-12T03:24:33;8.10;;;7.00;;
57327;SDS011;43162;51.040;18.244;2023-08-12T03:26:59;12.40;;;6.80;;
57327;SDS011;43162;51.040;18.244;2023-08-12T03:29:24;8.80;;;6.40;;
57327;SDS011;43162;51.040;18.244;2023-08-12T03:31:50;8.80;;;6.10;;
57327;SDS011;43162;51.040;18.244;2023-08-12T03:34:15;9.60;;;6.50;;
57327;SDS011;43162;51.040;18.244;2023-08-12T03:36:41;11.20;;;6.90;;
57327;SDS011;43162;51.040;18.244;2023-08-12T03:39:07;6.70;;;5.50;;
57327;SDS011;43162;51.040;18.244;2023-08-12T03:41:32;8.70;;;6.70;;
57327;SDS011;43162;51.040;18.244;2023-08-12T03:43:58;10.10;;;5.70;;
57327;SDS011;43162;51.040;18.244;2023-08-12T03:46:23;8.60;;;5.70;;
57327;SDS011;43162;51.040;18.244;2023-08-12T03:48:49;7.20;;;4.70;;
57327;SDS011;43162;51.040;18.244;2023-08-12T03:51:15;9.40;;;5.30;;
57327;SDS011;43162;51.040;18.244;2023-08-12T03:53:40;12.60;;;5.10;;
57327;SDS011;43162;51.040;18.244;2023-08-12T03:56:06;9.60;;;5.00;;
57327;SDS011;43162;51.040;18.244;2023-08-12T03:58:31;6.70;;;4.40;;
57327;SDS011;43162;51.040;18.244;2023-08-12T04:00:57;7.40;;;4.50;;
57327;SDS011;43162;51.040;18.244;2023-08-12T04:03:24;6.60;;;4.10;;
57327;SDS011;43162;51.040;18.244;2023-08-12T04:05:50;6.30;;;4.10;;
57327;SDS011;43162;51.040;18.244;2023-08-12T04:08:18;5.90;;;4.50;;
57327;SDS011;43162;51.040;18.244;2023-08-12T04:10:45;13.60;;;5.10;;
57327;SDS011;43162;51.040;18.244;2023-08-12T04:13:11;6.20;;;5.00;;
57327;SDS011;43162;51.040;18.244;2023-08-12T04:15:36;6.90;;;4.60;;
57327;SDS011;43162;51.040;18.244;2023-08-12T04:18:02;9.30;;;5.40;;
57327;SDS011;43162;51.040;18.244;2023-08-12T04:20:28;7.50;;;4.30;;
57327;SDS011;43162;51.040;18.244;2023-08-12T04:22:53;8.60;;;5.30;;
57327;SDS011;43162;51.040;18.244;2023-08-12T04:25:19;8.30;;;4.40;;
57327;SDS011;43162;51.040;18.244;2023-08-12T04:27:44;10.50;;;4.30;;
57327;SDS011;43162;51.040;18.244;2023-08-12T04:30:12;13.20;;;4.30;;
57327;SDS011;43162;51.040;18.244;2023-08-12T04:32:39;5.60;;;3.90;;
57327;SDS011;43162;51.040;18.244;2023-08-12T04:35:04;6.70;;;3.70;;
57327;SDS011;43162;51.040;18.244;2023-08-12T04:37:30;5.70;;;3.50;;
57327;SDS011;43162;51.040;18.244;2023-08-12T04:39:58;8.10;;;3.40;;
57327;SDS011;43162;51.040;18.244;2023-08-12T04:42:23;5.10;;;3.50;;
57327;SDS011;43162;51.040;18.244;2023-08-12T04:44:49;6.00;;;3.60;;
57327;SDS011;43162;51.040;18.244;2023-08-12T04:47:14;7.20;;;3.70;;
57327;SDS011;43162;51.040;18.244;2023-08-12T04:49:40;6.90;;;4.00;;
57327;SDS011;43162;51.040;18.244;2023-08-12T04:52:05;4.70;;;3.20;;
57327;SDS011;43162;51.040;18.244;2023-08-12T04:54:32;10.20;;;6.20;;
57327;SDS011;43162;51.040;18.244;2023-08-12T04:56:57;12.30;;;8.50;;
57327;SDS011;43162;51.040;18.244;2023-08-12T04:59:24;15.80;;;10.50;;
57327;SDS011;43162;51.040;18.244;2023-08-12T05:01:50;19.90;;;11.90;;
57327;SDS011;43162;51.040;18.244;2023-08-12T05:04:15;14.40;;;6.60;;
57327;SDS011;43162;51.040;18.244;2023-08-12T05:06:40;9.00;;;4.50;;
57327;SDS011;43162;51.040;18.244;2023-08-12T05:09:06;9.80;;;4.40;;
57327;SDS011;43162;51.040;18.244;2023-08-12T05:11:32;11.90;;;6.20;;
57327;SDS011;43162;51.040;18.244;2023-08-12T05:13:57;12.60;;;6.30;;
57327;SDS011;43162;51.040;18.244;2023-08-12T05:16:23;13.60;;;6.20;;
57327;SDS011;43162;51.040;18.244;2023-08-12T05:18:48;7.80;;;4.60;;
57327;SDS011;43162;51.040;18.244;2023-08-12T05:21:14;7.60;;;4.30;;
57327;SDS011;43162;51.040;18.244;2023-08-12T05:23:39;8.70;;;4.20;;
57327;SDS011;43162;51.040;18.244;2023-08-12T05:26:05;22.00;;;10.40;;
57327;SDS011;43162;51.040;18.244;2023-08-12T05:28:30;32.60;;;13.10;;
57327;SDS011;43162;51.040;18.244;2023-08-12T05:30:56;36.30;;;13.70;;
57327;SDS011;43162;51.040;18.244;2023-08-12T05:33:21;21.10;;;8.80;;
57327;SDS011;43162;51.040;18.244;2023-08-12T05:35:47;9.00;;;3.40;;
57327;SDS011;43162;51.040;18.244;2023-08-12T05:38:13;5.70;;;3.70;;
57327;SDS011;43162;51.040;18.244;2023-08-12T05:40:39;4.80;;;2.80;;
57327;SDS011;43162;51.040;18.244;2023-08-12T05:43:04;6.30;;;2.60;;
57327;SDS011;43162;51.040;18.244;2023-08-12T05:45:30;4.80;;;2.50;;
57327;SDS011;43162;51.040;18.244;2023-08-12T05:47:55;6.00;;;2.40;;
57327;SDS011;43162;51.040;18.244;2023-08-12T05:50:21;4.70;;;3.00;;
57327;SDS011;43162;51.040;18.244;2023-08-12T05:52:47;3.60;;;2.10;;
57327;SDS011;43162;51.040;18.244;2023-08-12T05:55:12;4.70;;;2.50;;
57327;SDS011;43162;51.040;18.244;2023-08-12T05:57:38;13.50;;;6.90;;
57327;SDS011;43162;51.040;18.244;2023-08-12T06:00:04;8.70;;;5.00;;
57327;SDS011;43162;51.040;18.244;2023-08-12T06:02:50;3.20;;;2.50;;
57327;SDS011;43162;51.040;18.244;2023-08-12T06:05:15;3.80;;;2.60;;
57327;SDS011;43162;51.040;18.244;2023-08-12T06:07:41;8.80;;;2.70;;
57327;SDS011;43162;51.040;18.244;2023-08-12T06:10:06;6.30;;;2.00;;
57327;SDS011;43162;51.040;18.244;2023-08-12T06:12:32;3.40;;;2.20;;
57327;SDS011;43162;51.040;18.244;2023-08-12T06:14:58;9.00;;;2.70;;
57327;SDS011;43162;51.040;18.244;2023-08-12T06:17:24;5.90;;;2.30;;
57327;SDS011;43162;51.040;18.244;2023-08-12T06:19:49;5.40;;;2.30;;
57327;SDS011;43162;51.040;18.244;2023-08-12T06:22:15;5.10;;;2.40;;
57327;SDS011;43162;51.040;18.244;2023-08-12T06:24:40;5.10;;;2.40;;
57327;SDS011;43162;51.040;18.244;2023-08-12T06:27:06;8.00;;;3.10;;
57327;SDS011;43162;51.040;18.244;2023-08-12T06:29:31;6.30;;;2.80;;
57327;SDS011;43162;51.040;18.244;2023-08-12T06:31:57;7.50;;;3.20;;
57327;SDS011;43162;51.040;18.244;2023-08-12T06:34:23;6.90;;;3.20;;
57327;SDS011;43162;51.040;18.244;2023-08-12T06:36:48;13.00;;;3.40;;
57327;SDS011;43162;51.040;18.244;2023-08-12T06:39:14;3.80;;;2.30;;
57327;SDS011;43162;51.040;18.244;2023-08-12T06:41:40;4.80;;;2.80;;
57327;SDS011;43162;51.040;18.244;2023-08-12T06:44:06;7.20;;;3.50;;
57327;SDS011;43162;51.040;18.244;2023-08-12T06:46:31;4.30;;;3.40;;
57327;SDS011;43162;51.040;18.244;2023-08-12T06:48:57;5.00;;;3.10;;
57327;SDS011;43162;51.040;18.244;2023-08-12T06:51:23;6.90;;;3.20;;
57327;SDS011;43162;51.040;18.244;2023-08-12T06:53:48;9.10;;;4.50;;
57327;SDS011;43162;51.040;18.244;2023-08-12T06:56:14;8.40;;;5.30;;
57327;SDS011;43162;51.040;18.244;2023-08-12T06:58:39;7.60;;;3.50;;
57327;SDS011;43162;51.040;18.244;2023-08-12T07:01:05;9.90;;;4.70;;
57327;SDS011;43162;51.040;18.244;2023-08-12T07:03:30;7.30;;;5.60;;
57327;SDS011;43162;51.040;18.244;2023-08-12T07:05:56;9.30;;;3.20;;
57327;SDS011;43162;51.040;18.244;2023-08-12T07:08:22;4.40;;;3.40;;
57327;SDS011;43162;51.040;18.244;2023-08-12T07:10:47;8.00;;;3.40;;
57327;SDS011;43162;51.040;18.244;2023-08-12T07:13:13;8.00;;;3.00;;
57327;SDS011;43162;51.040;18.244;2023-08-12T07:15:38;4.30;;;2.50;;
57327;SDS011;43162;51.040;18.244;2023-08-12T07:18:04;6.10;;;2.90;;
57327;SDS011;43162;51.040;18.244;2023-08-12T07:20:30;4.40;;;2.60;;
57327;SDS011;43162;51.040;18.244;2023-08-12T07:22:55;5.50;;;3.10;;
57327;SDS011;43162;51.040;18.244;2023-08-12T07:25:21;8.10;;;2.70;;
57327;SDS011;43162;51.040;18.244;2023-08-12T07:27:46;5.40;;;2.50;;
57327;SDS011;43162;51.040;18.244;2023-08-12T07:30:12;3.10;;;2.50;;
57327;SDS011;43162;51.040;18.244;2023-08-12T07:32:37;7.40;;;2.40;;
57327;SDS011;43162;51.040;18.244;2023-08-12T07:35:03;5.00;;;2.50;;
57327;SDS011;43162;51.040;18.244;2023-08-12T07:37:31;4.50;;;2.10;;
57327;SDS011;43162;51.040;18.244;2023-08-12T07:39:56;3.60;;;2.20;;
57327;SDS011;43162;51.040;18.244;2023-08-12T07:42:22;4.70;;;2.20;;
57327;SDS011;43162;51.040;18.244;2023-08-12T07:44:47;2.00;;;1.70;;
57327;SDS011;43162;51.040;18.244;2023-08-12T07:47:13;3.70;;;2.20;;
57327;SDS011;43162;51.040;18.244;2023-08-12T07:49:40;4.70;;;2.20;;
57327;SDS011;43162;51.040;18.244;2023-08-12T07:52:07;3.10;;;1.80;;
57327;SDS011;43162;51.040;18.244;2023-08-12T07:54:32;3.10;;;1.90;;
57327;SDS011;43162;51.040;18.244;2023-08-12T07:56:57;2.60;;;2.20;;
57327;SDS011;43162;51.040;18.244;2023-08-12T07:59:23;3.90;;;1.90;;
57327;SDS011;43162;51.040;18.244;2023-08-12T08:01:49;4.60;;;1.90;;
57327;SDS011;43162;51.040;18.244;2023-08-12T08:04:14;3.50;;;2.00;;
57327;SDS011;43162;51.040;18.244;2023-08-12T08:06:39;6.50;;;1.70;;
57327;SDS011;43162;51.040;18.244;2023-08-12T08:09:05;5.20;;;1.90;;
57327;SDS011;43162;51.040;18.244;2023-08-12T08:11:31;4.90;;;1.90;;
57327;SDS011;43162;51.040;18.244;2023-08-12T08:13:57;2.20;;;1.70;;
57327;SDS011;43162;51.040;18.244;2023-08-12T08:16:23;3.30;;;1.90;;
57327;SDS011;43162;51.040;18.244;2023-08-12T08:18:49;2.30;;;1.80;;
57327;SDS011;43162;51.040;18.244;2023-08-12T08:21:15;7.40;;;2.00;;
57327;SDS011;43162;51.040;18.244;2023-08-12T08:23:41;4.00;;;1.60;;
57327;SDS011;43162;51.040;18.244;2023-08-12T08:26:07;2.80;;;1.50;;
57327;SDS011;43162;51.040;18.244;2023-08-12T08:28:32;4.20;;;1.90;;
57327;SDS011;43162;51.040;18.244;2023-08-12T08:30:58;8.40;;;1.70;;
57327;SDS011;43162;51.040;18.244;2023-08-12T08:33:24;4.60;;;1.80;;
57327;SDS011;43162;51.040;18.244;2023-08-12T08:35:51;3.90;;;1.60;;
57327;SDS011;43162;51.040;18.244;2023-08-12T08:38:16;4.00;;;1.80;;
57327;SDS011;43162;51.040;18.244;2023-08-12T08:40:42;1.80;;;1.40;;
57327;SDS011;43162;51.040;18.244;2023-08-12T08:43:08;3.30;;;1.60;;
57327;SDS011;43162;51.040;18.244;2023-08-12T08:45:34;4.60;;;2.00;;
57327;SDS011;43162;51.040;18.244;2023-08-12T08:48:01;5.00;;;1.40;;
57327;SDS011;43162;51.040;18.244;2023-08-12T08:50:27;5.80;;;1.80;;
57327;SDS011;43162;51.040;18.244;2023-08-12T08:52:53;4.80;;;1.80;;
57327;SDS011;43162;51.040;18.244;2023-08-12T08:55:21;5.90;;;1.60;;
57327;SDS011;43162;51.040;18.244;2023-08-12T08:57:47;3.10;;;1.30;;
57327;SDS011;43162;51.040;18.244;2023-08-12T09:00:12;3.90;;;1.80;;
57327;SDS011;43162;51.040;18.244;2023-08-12T09:02:39;2.30;;;1.30;;
57327;SDS011;43162;51.040;18.244;2023-08-12T09:05:06;4.20;;;1.90;;
57327;SDS011;43162;51.040;18.244;2023-08-12T09:07:32;1.70;;;1.20;;
57327;SDS011;43162;51.040;18.244;2023-08-12T09:09:58;4.30;;;1.30;;
57327;SDS011;43162;51.040;18.244;2023-08-12T09:12:26;3.70;;;1.30;;
57327;SDS011;43162;51.040;18.244;2023-08-12T09:14:51;6.10;;;1.80;;
57327;SDS011;43162;51.040;18.244;2023-08-12T09:17:16;1.90;;;1.10;;
57327;SDS011;43162;51.040;18.244;2023-08-12T09:19:42;2.60;;;1.20;;
57327;SDS011;43162;51.040;18.244;2023-08-12T09:22:08;3.00;;;1.40;;
57327;SDS011;43162;51.040;18.244;2023-08-12T09:24:36;4.20;;;1.80;;
57327;SDS011;43162;51.040;18.244;2023-08-12T09:27:02;4.10;;;1.50;;
57327;SDS011;43162;51.040;18.244;2023-08-12T09:29:34;5.30;;;1.50;;
57327;SDS011;43162;51.040;18.244;2023-08-12T09:32:09;3.60;;;1.60;;
57327;SDS011;43162;51.040;18.244;2023-08-12T09:34:35;4.80;;;1.40;;
57327;SDS011;43162;51.040;18.244;2023-08-12T09:37:01;3.20;;;1.60;;
57327;SDS011;43162;51.040;18.244;2023-08-12T09:39:28;3.20;;;1.20;;
57327;SDS011;43162;51.040;18.244;2023-08-12T09:41:55;6.50;;;1.60;;
57327;SDS011;43162;51.040;18.244;2023-08-12T09:44:22;3.10;;;1.40;;
57327;SDS011;43162;51.040;18.244;2023-08-12T09:46:48;1.90;;;1.40;;
57327;SDS011;43162;51.040;18.244;2023-08-12T09:49:13;1.40;;;1.20;;
57327;SDS011;43162;51.040;18.244;2023-08-12T09:51:39;3.40;;;1.40;;
57327;SDS011;43162;51.040;18.244;2023-08-12T09:54:08;3.90;;;1.40;;
57327;SDS011;43162;51.040;18.244;2023-08-12T09:56:36;3.40;;;1.40;;
57327;SDS011;43162;51.040;18.244;2023-08-12T09:59:03;2.00;;;1.00;;
57327;SDS011;43162;51.040;18.244;2023-08-12T10:01:31;2.80;;;1.40;;
57327;SDS011;43162;51.040;18.244;2023-08-12T10:03:56;5.30;;;1.30;;
57327;SDS011;43162;51.040;18.244;2023-08-12T10:06:22;2.00;;;1.30;;
57327;SDS011;43162;51.040;18.244;2023-08-12T10:08:48;5.70;;;1.50;;
57327;SDS011;43162;51.040;18.244;2023-08-12T10:11:14;2.80;;;1.60;;
57327;SDS011;43162;51.040;18.244;2023-08-12T10:13:41;2.50;;;1.40;;
57327;SDS011;43162;51.040;18.244;2023-08-12T10:16:07;2.30;;;1.40;;
57327;SDS011;43162;51.040;18.244;2023-08-12T10:18:33;1.30;;;1.20;;
57327;SDS011;43162;51.040;18.244;2023-08-12T10:20:58;4.90;;;1.40;;
57327;SDS011;43162;51.040;18.244;2023-08-12T10:23:24;3.30;;;1.30;;
57327;SDS011;43162;51.040;18.244;2023-08-12T10:25:51;9.30;;;1.60;;
57327;SDS011;43162;51.040;18.244;2023-08-12T10:28:19;4.40;;;1.80;;
57327;SDS011;43162;51.040;18.244;2023-08-12T10:30:45;2.00;;;1.20;;
57327;SDS011;43162;51.040;18.244;2023-08-12T10:33:10;4.00;;;1.30;;
57327;SDS011;43162;51.040;18.244;2023-08-12T10:35:42;9.50;;;1.70;;
57327;SDS011;43162;51.040;18.244;2023-08-12T10:38:08;1.90;;;1.60;;
57327;SDS011;43162;51.040;18.244;2023-08-12T10:40:35;1.60;;;1.30;;
57327;SDS011;43162;51.040;18.244;2023-08-12T10:43:01;6.10;;;1.50;;
57327;SDS011;43162;51.040;18.244;2023-08-12T10:45:40;3.20;;;1.30;;
57327;SDS011;43162;51.040;18.244;2023-08-12T10:48:24;1.70;;;1.30;;
57327;SDS011;43162;51.040;18.244;2023-08-12T10:50:55;3.40;;;1.50;;
57327;SDS011;43162;51.040;18.244;2023-08-12T10:53:24;4.50;;;1.60;;
57327;SDS011;43162;51.040;18.244;2023-08-12T10:55:56;2.20;;;1.30;;
57327;SDS011;43162;51.040;18.244;2023-08-12T11:00:54;2.30;;;1.30;;
57327;SDS011;43162;51.040;18.244;2023-08-12T11:03:20;2.50;;;1.40;;
57327;SDS011;43162;51.040;18.244;2023-08-12T11:05:46;4.20;;;1.20;;
57327;SDS011;43162;51.040;18.244;2023-08-12T11:08:12;3.20;;;1.50;;
57327;SDS011;43162;51.040;18.244;2023-08-12T11:10:38;4.20;;;1.80;;
57327;SDS011;43162;51.040;18.244;2023-08-12T11:13:04;1.90;;;1.60;;
57327;SDS011;43162;51.040;18.244;2023-08-12T11:15:43;1.80;;;1.10;;
57327;SDS011;43162;51.040;18.244;2023-08-12T11:18:20;3.70;;;1.10;;
57327;SDS011;43162;51.040;18.244;2023-08-12T11:20:47;4.70;;;1.20;;
57327;SDS011;43162;51.040;18.244;2023-08-12T11:23:13;3.60;;;1.20;;
57327;SDS011;43162;51.040;18.244;2023-08-12T11:25:39;2.80;;;1.30;;
57327;SDS011;43162;51.040;18.244;2023-08-12T11:28:05;4.00;;;1.50;;
57327;SDS011;43162;51.040;18.244;2023-08-12T11:30:31;2.70;;;1.40;;
57327;SDS011;43162;51.040;18.244;2023-08-12T11:32:57;1.40;;;1.00;;
57327;SDS011;43162;51.040;18.244;2023-08-12T11:35:24;4.90;;;1.20;;
57327;SDS011;43162;51.040;18.244;2023-08-12T11:37:53;4.00;;;1.30;;
57327;SDS011;43162;51.040;18.244;2023-08-12T11:40:20;3.90;;;1.20;;
57327;SDS011;43162;51.040;18.244;2023-08-12T11:42:47;2.40;;;1.30;;
57327;SDS011;43162;51.040;18.244;2023-08-12T11:45:14;5.90;;;1.50;;
57327;SDS011;43162;51.040;18.244;2023-08-12T11:47:40;3.50;;;1.50;;
57327;SDS011;43162;51.040;18.244;2023-08-12T11:50:06;3.20;;;1.50;;
57327;SDS011;43162;51.040;18.244;2023-08-12T11:52:33;2.90;;;1.10;;
57327;SDS011;43162;51.040;18.244;2023-08-12T11:54:59;2.80;;;1.00;;
57327;SDS011;43162;51.040;18.244;2023-08-12T11:57:25;2.00;;;1.30;;
57327;SDS011;43162;51.040;18.244;2023-08-12T11:59:51;4.10;;;1.40;;
57327;SDS011;43162;51.040;18.244;2023-08-12T12:02:17;2.20;;;1.40;;
57327;SDS011;43162;51.040;18.244;2023-08-12T12:04:42;3.80;;;1.60;;
57327;SDS011;43162;51.040;18.244;2023-08-12T12:07:22;4.50;;;1.10;;
57327;SDS011;43162;51.040;18.244;2023-08-12T12:09:52;3.80;;;1.10;;
57327;SDS011;43162;51.040;18.244;2023-08-12T12:12:18;2.00;;;1.30;;
57327;SDS011;43162;51.040;18.244;2023-08-12T12:14:46;2.70;;;1.20;;
57327;SDS011;43162;51.040;18.244;2023-08-12T12:17:12;3.00;;;1.30;;
57327;SDS011;43162;51.040;18.244;2023-08-12T12:19:40;2.70;;;1.30;;
57327;SDS011;43162;51.040;18.244;2023-08-12T12:22:05;3.30;;;1.40;;
57327;SDS011;43162;51.040;18.244;2023-08-12T12:24:43;6.50;;;1.70;;
57327;SDS011;43162;51.040;18.244;2023-08-12T12:27:10;6.30;;;1.30;;
57327;SDS011;43162;51.040;18.244;2023-08-12T12:29:36;2.60;;;1.30;;
57327;SDS011;43162;51.040;18.244;2023-08-12T12:32:01;2.60;;;1.20;;
57327;SDS011;43162;51.040;18.244;2023-08-12T12:34:27;1.80;;;1.40;;
57327;SDS011;43162;51.040;18.244;2023-08-12T12:36:52;3.20;;;1.20;;
57327;SDS011;43162;51.040;18.244;2023-08-12T12:39:18;4.30;;;1.40;;
57327;SDS011;43162;51.040;18.244;2023-08-12T12:41:44;3.60;;;1.20;;
57327;SDS011;43162;51.040;18.244;2023-08-12T12:44:09;4.10;;;1.10;;
57327;SDS011;43162;51.040;18.244;2023-08-12T12:46:35;4.00;;;1.20;;
57327;SDS011;43162;51.040;18.244;2023-08-12T12:49:00;2.30;;;1.50;;
57327;SDS011;43162;51.040;18.244;2023-08-12T12:51:26;3.50;;;1.50;;
57327;SDS011;43162;51.040;18.244;2023-08-12T12:53:52;1.70;;;1.00;;
57327;SDS011;43162;51.040;18.244;2023-08-12T12:56:18;2.90;;;1.10;;
57327;SDS011;43162;51.040;18.244;2023-08-12T12:58:44;10.70;;;1.30;;
57327;SDS011;43162;51.040;18.244;2023-08-12T13:01:09;2.80;;;1.30;;
57327;SDS011;43162;51.040;18.244;2023-08-12T13:03:35;2.00;;;1.30;;
57327;SDS011;43162;51.040;18.244;2023-08-12T13:06:00;1.60;;;1.00;;
57327;SDS011;43162;51.040;18.244;2023-08-12T13:08:28;2.40;;;1.50;;
57327;SDS011;43162;51.040;18.244;2023-08-12T13:10:54;3.70;;;1.00;;
57327;SDS011;43162;51.040;18.244;2023-08-12T13:13:19;2.70;;;0.90;;
57327;SDS011;43162;51.040;18.244;2023-08-12T13:15:45;5.60;;;1.00;;
57327;SDS011;43162;51.040;18.244;2023-08-12T13:18:11;4.70;;;1.10;;
57327;SDS011;43162;51.040;18.244;2023-08-12T13:20:37;3.80;;;1.20;;
57327;SDS011;43162;51.040;18.244;2023-08-12T13:23:03;7.20;;;1.20;;
57327;SDS011;43162;51.040;18.244;2023-08-12T13:25:32;4.60;;;1.40;;
57327;SDS011;43162;51.040;18.244;2023-08-12T13:28:02;1.70;;;1.30;;
57327;SDS011;43162;51.040;18.244;2023-08-12T13:30:28;1.60;;;1.40;;
57327;SDS011;43162;51.040;18.244;2023-08-12T13:32:54;4.80;;;1.10;;
57327;SDS011;43162;51.040;18.244;2023-08-12T13:35:21;2.80;;;1.40;;
57327;SDS011;43162;51.040;18.244;2023-08-12T13:38:06;4.10;;;1.20;;
57327;SDS011;43162;51.040;18.244;2023-08-12T13:40:31;1.30;;;1.20;;
57327;SDS011;43162;51.040;18.244;2023-08-12T13:42:57;5.90;;;1.40;;
57327;SDS011;43162;51.040;18.244;2023-08-12T13:45:22;6.50;;;1.20;;
57327;SDS011;43162;51.040;18.244;2023-08-12T13:47:49;4.60;;;1.30;;
57327;SDS011;43162;51.040;18.244;2023-08-12T13:50:15;3.00;;;1.10;;
57327;SDS011;43162;51.040;18.244;2023-08-12T13:52:41;3.10;;;1.40;;
57327;SDS011;43162;51.040;18.244;2023-08-12T13:55:06;1.30;;;1.20;;
57327;SDS011;43162;51.040;18.244;2023-08-12T13:57:32;4.20;;;1.30;;
57327;SDS011;43162;51.040;18.244;2023-08-12T13:59:58;2.80;;;1.40;;
57327;SDS011;43162;51.040;18.244;2023-08-12T14:02:24;4.50;;;1.40;;
57327;SDS011;43162;51.040;18.244;2023-08-12T14:04:49;4.10;;;1.60;;
57327;SDS011;43162;51.040;18.244;2023-08-12T14:07:15;6.30;;;1.50;;
57327;SDS011;43162;51.040;18.244;2023-08-12T14:09:41;7.30;;;1.60;;
57327;SDS011;43162;51.040;18.244;2023-08-12T14:12:07;2.00;;;1.20;;
57327;SDS011;43162;51.040;18.244;2023-08-12T14:14:33;2.30;;;1.50;;
57327;SDS011;43162;51.040;18.244;2023-08-12T14:16:59;4.00;;;1.20;;
57327;SDS011;43162;51.040;18.244;2023-08-12T14:19:24;3.50;;;1.40;;
57327;SDS011;43162;51.040;18.244;2023-08-12T14:21:50;5.30;;;1.30;;
57327;SDS011;43162;51.040;18.244;2023-08-12T14:24:15;4.00;;;1.40;;
57327;SDS011;43162;51.040;18.244;2023-08-12T14:26:41;2.50;;;1.30;;
57327;SDS011;43162;51.040;18.244;2023-08-12T14:29:06;2.00;;;1.00;;
57327;SDS011;43162;51.040;18.244;2023-08-12T14:31:32;2.90;;;1.10;;
57327;SDS011;43162;51.040;18.244;2023-08-12T14:33:58;4.00;;;1.70;;
57327;SDS011;43162;51.040;18.244;2023-08-12T14:36:24;4.20;;;1.40;;